This is the latest recevied weather packets stored in our database for station/object WK7G. If no packets are shown the sender has not sent any weather packets the latest 10 day(s).
| Time | Temp. | Humidity | Pressure | Rain* | Wind** | Luminosity | Snow |
|---|---|---|---|---|---|---|---|
| 1777688927 | 7.22° C | 55% | 1013.4 hPa | 0 mm | - | 2 W/m² | - |
| 1777688624 | 8.33° C | 53% | 1013.6 hPa | 0 mm | - | 4 W/m² | - |
| 1777688320 | 9.44° C | 49% | 1013.5 hPa | 0 mm | - | 6 W/m² | - |
| 1777688018 | 10.56° C | 46% | 1013.4 hPa | 0 mm | - | 10 W/m² | - |
| 1777687715 | 11.67° C | 46% | 1013.5 hPa | 0 mm | - | 12 W/m² | - |
| 1777687413 | 13.33° C | 37% | 1013.5 hPa | 0 mm | - | 15 W/m² | - |
| 1777687109 | 14.44° C | 33% | 1013.4 hPa | 0 mm | - | 19 W/m² | - |
| 1777686807 | 14.44° C | 32% | 1013.4 hPa | 0 mm | - | 21 W/m² | - |
| 1777686504 | 14.44° C | 33% | 1013.4 hPa | 0 mm | - | 24 W/m² | - |
| 1777686201 | 15° C | 33% | 1013.1 hPa | 0 mm | - | 26 W/m² | - |
| 1777685897 | 15.56° C | 30% | 1013.1 hPa | 0 mm | - | 28 W/m² | - |
| 1777685593 | 15.56° C | 27% | 1013.3 hPa | 0 mm | - | 30 W/m² | - |
| 1777685289 | 15.56° C | 30% | 1013.1 hPa | 0 mm | - | 37 W/m² | - |
| 1777684987 | 15.56° C | 29% | 1013 hPa | 0 mm | - | 34 W/m² | - |
| 1777684684 | 16.11° C | 25% | 1013 hPa | 0 mm | - | 43 W/m² | - |
| 1777684380 | 16.11° C | 25% | 1013.3 hPa | 0 mm | - | 65 W/m² | - |
| 1777684078 | 15.56° C | 26% | 1013.3 hPa | 0 mm | - | 105 W/m² | - |
| 1777683774 | 16.11° C | 30% | 1013.1 hPa | 0 mm | - | 120 W/m² | - |
| 1777683471 | 15.56° C | 27% | 1013.4 hPa | 0 mm | - | 40 W/m² | - |
| 1777683169 | 16.67° C | 25% | 1013 hPa | 0 mm | - | 150 W/m² | - |
| 1777682865 | 16.11° C | 25% | 1012.9 hPa | 0 mm | - | 42 W/m² | - |
| 1777682562 | 16.67° C | 23% | 1013.1 hPa | 0 mm | - | 184 W/m² | - |
| 1777682260 | 16.67° C | 26% | 1013.1 hPa | 0 mm | - | 45 W/m² | - |
| 1777681957 | 16.67° C | 26% | 1013.1 hPa | 0 mm | - | 225 W/m² | - |
| 1777681652 | 16.67° C | 25% | 1013.1 hPa | 0 mm | - | 244 W/m² | - |
* Rain latest hour (hover to see other rain measurements)
** Current wind speed in m/s (hover to see current wind gust speed)